JRE147 KTPA-KSUA
Flight info
| Callsign | JRE147 |
|---|---|
| Flight time | 1h 10m |
| Altitude | 29000 |
| Route | GANDY8 SABEE VUUDU1 |
| Aircraft | HDJT/L-SABDGRWY/H |
Departure
| Time | 2026-05-06 05:20 |
|---|---|
| Airport | Tampa International Airport (KTPA) |
Arrival
| Time | 2026-05-06 06:30 |
|---|---|
| Airport | Witham Field (KSUA) |
| Time | Latitude | Longitude | Altitude | Speed | Heading |
|---|---|---|---|---|---|
| 2026-05-06 05:05 | 27.98423 | -82.53605 | 33 ft | 0 kts | 136° |
| 2026-05-06 05:14 | 27.98422 | -82.53603 | 39 ft | 2 kts | 125° |
| 2026-05-06 05:15 | 27.98451 | -82.53582 | 32 ft | 11 kts | 324° |
| 2026-05-06 05:15 | 27.98473 | -82.53674 | 31 ft | 14 kts | 305° |
| 2026-05-06 05:15 | 27.98514 | -82.53769 | 34 ft | 12 kts | 309° |
| 2026-05-06 05:15 | 27.98565 | -82.53836 | 36 ft | 10 kts | 309° |
| 2026-05-06 05:16 | 27.98581 | -82.53902 | 38 ft | 8 kts | 270° |
| 2026-05-06 05:16 | 27.98583 | -82.53963 | 39 ft | 8 kts | 271° |
| 2026-05-06 05:16 | 27.98592 | -82.54019 | 39 ft | 8 kts | 308° |
| 2026-05-06 05:16 | 27.98657 | -82.54037 | 39 ft | 11 kts | 6° |
| 2026-05-06 05:17 | 27.98738 | -82.54031 | 38 ft | 12 kts | 2° |
| 2026-05-06 05:17 | 27.98829 | -82.54027 | 38 ft | 14 kts | 2° |
| 2026-05-06 05:17 | 27.98930 | -82.54023 | 37 ft | 15 kts | 2° |
| 2026-05-06 05:17 | 27.99045 | -82.54019 | 35 ft | 18 kts | 1° |
| 2026-05-06 05:18 | 27.99176 | -82.54015 | 33 ft | 20 kts | 1° |
| 2026-05-06 05:18 | 27.99283 | -82.54011 | 34 ft | 12 kts | 1° |
| 2026-05-06 05:18 | 27.99333 | -82.54029 | 33 ft | 4 kts | 299° |
| 2026-05-06 05:18 | 27.99342 | -82.54070 | 32 ft | 7 kts | 274° |
| 2026-05-06 05:19 | 27.99327 | -82.54128 | 32 ft | 9 kts | 218° |
| 2026-05-06 05:19 | 27.99268 | -82.54138 | 33 ft | 12 kts | 180° |
| 2026-05-06 05:19 | 27.98847 | -82.54150 | 38 ft | 104 kts | 181° |
| 2026-05-06 05:19 | 27.98000 | -82.54209 | 353 ft | 128 kts | 184° |
| 2026-05-06 05:20 | 27.97074 | -82.54397 | 801 ft | 139 kts | 186° |
| 2026-05-06 05:20 | 27.96230 | -82.54578 | 1311 ft | 114 kts | 185° |
| 2026-05-06 05:20 | 27.95457 | -82.54750 | 1784 ft | 113 kts | 184° |
| 2026-05-06 05:20 | 27.94645 | -82.54927 | 1945 ft | 128 kts | 183° |
| 2026-05-06 05:21 | 27.93715 | -82.55111 | 1876 ft | 135 kts | 183° |
| 2026-05-06 05:21 | 27.92790 | -82.55295 | 1869 ft | 139 kts | 183° |
| 2026-05-06 05:21 | 27.91884 | -82.55476 | 1872 ft | 124 kts | 181° |
| 2026-05-06 05:21 | 27.91033 | -82.55576 | 1870 ft | 122 kts | 178° |
| 2026-05-06 05:22 | 27.90189 | -82.55678 | 1986 ft | 124 kts | 178° |
| 2026-05-06 05:22 | 27.89351 | -82.55787 | 2455 ft | 120 kts | 179° |
| 2026-05-06 05:22 | 27.88500 | -82.55893 | 2950 ft | 126 kts | 181° |
| 2026-05-06 05:22 | 27.87621 | -82.56010 | 3515 ft | 128 kts | 183° |
| 2026-05-06 05:23 | 27.86731 | -82.56126 | 4119 ft | 129 kts | 184° |
| 2026-05-06 05:23 | 27.85841 | -82.56240 | 4750 ft | 129 kts | 184° |
| 2026-05-06 05:23 | 27.83696 | -82.56518 | 5420 ft | 184 kts | 186° |
| 2026-05-06 05:24 | 27.82324 | -82.56698 | 5766 ft | 210 kts | 187° |
| 2026-05-06 05:24 | 27.80857 | -82.56891 | 6558 ft | 213 kts | 188° |
| 2026-05-06 05:24 | 27.79371 | -82.57084 | 7321 ft | 216 kts | 189° |
| 2026-05-06 05:24 | 27.77858 | -82.57276 | 8059 ft | 222 kts | 187° |
| 2026-05-06 05:25 | 27.76293 | -82.57117 | 8791 ft | 232 kts | 168° |
| 2026-05-06 05:25 | 27.74782 | -82.56455 | 9516 ft | 239 kts | 159° |
| 2026-05-06 05:25 | 27.73230 | -82.55707 | 10218 ft | 247 kts | 160° |
| 2026-05-06 05:25 | 27.71586 | -82.54936 | 10722 ft | 259 kts | 160° |
| 2026-05-06 05:26 | 27.69915 | -82.54143 | 11474 ft | 262 kts | 160° |
| 2026-05-06 05:26 | 27.68245 | -82.53349 | 12178 ft | 266 kts | 160° |
| 2026-05-06 05:26 | 27.66525 | -82.52533 | 12928 ft | 270 kts | 161° |
| 2026-05-06 05:26 | 27.64780 | -82.51706 | 13716 ft | 274 kts | 161° |
| 2026-05-06 05:27 | 27.63005 | -82.50865 | 14381 ft | 279 kts | 161° |
| 2026-05-06 05:27 | 27.61198 | -82.50008 | 15009 ft | 284 kts | 162° |
| 2026-05-06 05:27 | 27.59355 | -82.49135 | 15655 ft | 289 kts | 162° |
| 2026-05-06 05:27 | 27.57511 | -82.48262 | 16296 ft | 294 kts | 162° |
| 2026-05-06 05:28 | 27.55650 | -82.47244 | 16937 ft | 302 kts | 156° |
| 2026-05-06 05:28 | 27.53785 | -82.46097 | 17595 ft | 307 kts | 156° |
| 2026-05-06 05:28 | 27.51888 | -82.44945 | 18252 ft | 312 kts | 157° |
| 2026-05-06 05:28 | 27.49971 | -82.43801 | 18818 ft | 316 kts | 157° |
| 2026-05-06 05:29 | 27.48010 | -82.42626 | 19400 ft | 321 kts | 157° |
| 2026-05-06 05:29 | 27.46022 | -82.41430 | 19983 ft | 325 kts | 157° |
| 2026-05-06 05:29 | 27.44009 | -82.40220 | 20576 ft | 329 kts | 157° |
| 2026-05-06 05:29 | 27.41975 | -82.39000 | 21193 ft | 332 kts | 158° |
| 2026-05-06 05:30 | 27.39921 | -82.37768 | 21804 ft | 336 kts | 158° |
| 2026-05-06 05:30 | 27.37871 | -82.36539 | 22402 ft | 341 kts | 158° |
| 2026-05-06 05:30 | 27.35763 | -82.35275 | 23016 ft | 345 kts | 158° |
| 2026-05-06 05:30 | 27.33628 | -82.33996 | 23633 ft | 350 kts | 158° |
| 2026-05-06 05:31 | 27.31461 | -82.32698 | 24152 ft | 354 kts | 158° |
| 2026-05-06 05:31 | 27.29275 | -82.31390 | 24679 ft | 357 kts | 158° |
| 2026-05-06 05:31 | 27.27058 | -82.30063 | 25204 ft | 361 kts | 158° |
| 2026-05-06 05:31 | 27.24855 | -82.28745 | 25699 ft | 365 kts | 157° |
| 2026-05-06 05:32 | 27.22602 | -82.27398 | 26216 ft | 369 kts | 157° |
| 2026-05-06 05:32 | 27.20323 | -82.26036 | 26710 ft | 373 kts | 157° |
| 2026-05-06 05:32 | 27.18006 | -82.24653 | 27201 ft | 377 kts | 156° |
| 2026-05-06 05:32 | 27.15670 | -82.23258 | 27684 ft | 381 kts | 156° |
| 2026-05-06 05:33 | 27.13341 | -82.21867 | 28145 ft | 384 kts | 156° |
| 2026-05-06 05:33 | 27.10957 | -82.20446 | 28613 ft | 388 kts | 156° |
| 2026-05-06 05:33 | 27.08634 | -82.18853 | 29040 ft | 396 kts | 146° |
| 2026-05-06 05:33 | 27.06534 | -82.16805 | 29072 ft | 413 kts | 136° |
| 2026-05-06 05:34 | 27.04503 | -82.14423 | 29080 ft | 428 kts | 133° |
| 2026-05-06 05:34 | 27.02406 | -82.11957 | 29085 ft | 441 kts | 136° |
| 2026-05-06 05:34 | 27.00165 | -82.09521 | 29090 ft | 452 kts | 137° |
| 2026-05-06 05:34 | 26.97905 | -82.07096 | 29090 ft | 461 kts | 136° |
| 2026-05-06 05:35 | 26.93299 | -82.01898 | 29079 ft | 475 kts | 135° |
| 2026-05-06 05:35 | 26.88514 | -81.96636 | 29089 ft | 485 kts | 136° |
| 2026-05-06 05:36 | 26.83808 | -81.91209 | 29088 ft | 489 kts | 128° |
| 2026-05-06 05:36 | 26.80404 | -81.84670 | 29081 ft | 485 kts | 109° |
| 2026-05-06 05:37 | 26.77984 | -81.77614 | 29074 ft | 485 kts | 109° |
| 2026-05-06 05:37 | 26.75322 | -81.70714 | 29070 ft | 485 kts | 110° |
| 2026-05-06 05:38 | 26.72794 | -81.63700 | 29063 ft | 485 kts | 109° |
| 2026-05-06 05:38 | 26.70191 | -81.56784 | 29068 ft | 484 kts | 110° |
| 2026-05-06 05:39 | 26.68532 | -81.49570 | 29066 ft | 475 kts | 90° |
| 2026-05-06 05:39 | 26.68948 | -81.42318 | 29066 ft | 461 kts | 71° |
| 2026-05-06 05:40 | 26.70588 | -81.35459 | 29067 ft | 459 kts | 68° |
| 2026-05-06 05:40 | 26.71374 | -81.32038 | 29068 ft | 446 kts | 69° |
| 2026-05-06 05:40 | 26.72140 | -81.28680 | 29067 ft | 446 kts | 68° |
| 2026-05-06 05:41 | 26.73753 | -81.21897 | 29066 ft | 452 kts | 69° |
| 2026-05-06 05:41 | 26.75317 | -81.15111 | 29069 ft | 452 kts | 69° |
| 2026-05-06 05:42 | 26.76648 | -81.09433 | 29066 ft | 452 kts | 69° |
| 2026-05-06 05:42 | 26.78216 | -81.02644 | 29066 ft | 453 kts | 70° |
| 2026-05-06 05:43 | 26.78898 | -80.95539 | 29071 ft | 462 kts | 82° |
| 2026-05-06 05:43 | 26.79206 | -80.88348 | 29065 ft | 462 kts | 82° |
| 2026-05-06 05:44 | 26.79522 | -80.81198 | 29066 ft | 462 kts | 82° |
| 2026-05-06 05:44 | 26.80816 | -80.74304 | 29067 ft | 446 kts | 61° |
| 2026-05-06 05:45 | 26.83950 | -80.68546 | 29071 ft | 427 kts | 40° |
| 2026-05-06 05:45 | 26.86079 | -80.66284 | 29069 ft | 416 kts | 30° |
| 2026-05-06 05:45 | 26.88476 | -80.64534 | 29070 ft | 406 kts | 19° |
| 2026-05-06 05:46 | 26.93721 | -80.62740 | 29069 ft | 386 kts | 358° |
| 2026-05-06 05:46 | 26.99020 | -80.62570 | 29068 ft | 383 kts | 355° |
| 2026-05-06 05:47 | 27.04374 | -80.62036 | 29073 ft | 389 kts | 2° |
| 2026-05-06 05:47 | 27.09702 | -80.60653 | 29073 ft | 393 kts | 6° |
| 2026-05-06 05:48 | 27.15012 | -80.59956 | 29071 ft | 386 kts | 359° |
| 2026-05-06 05:48 | 27.20258 | -80.58145 | 29077 ft | 407 kts | 20° |
| 2026-05-06 05:49 | 27.22658 | -80.56380 | 29075 ft | 418 kts | 31° |
| 2026-05-06 05:49 | 27.24789 | -80.54100 | 29080 ft | 428 kts | 41° |
| 2026-05-06 05:49 | 27.26575 | -80.51368 | 29082 ft | 440 kts | 52° |
| 2026-05-06 05:49 | 27.27953 | -80.48249 | 29084 ft | 450 kts | 62° |
| 2026-05-06 05:50 | 27.29263 | -80.41315 | 29089 ft | 465 kts | 83° |
| 2026-05-06 05:50 | 27.29145 | -80.37664 | 29089 ft | 470 kts | 94° |
| 2026-05-06 05:50 | 27.28495 | -80.34040 | 29090 ft | 474 kts | 104° |
| 2026-05-06 05:51 | 27.25685 | -80.27331 | 29088 ft | 477 kts | 125° |
| 2026-05-06 05:51 | 27.21306 | -80.21818 | 29093 ft | 475 kts | 137° |
| 2026-05-06 05:52 | 27.16797 | -80.16368 | 29103 ft | 477 kts | 129° |
| 2026-05-06 05:52 | 27.13305 | -80.10046 | 29092 ft | 476 kts | 111° |
| 2026-05-06 05:53 | 27.11394 | -80.03008 | 29078 ft | 473 kts | 102° |
| 2026-05-06 05:53 | 27.09384 | -79.95970 | 29086 ft | 474 kts | 111° |
| 2026-05-06 05:54 | 27.06847 | -79.89132 | 29089 ft | 474 kts | 109° |
| 2026-05-06 05:54 | 27.04682 | -79.82139 | 29092 ft | 474 kts | 109° |
| 2026-05-06 05:55 | 27.02297 | -79.75287 | 29097 ft | 474 kts | 109° |
| 2026-05-06 05:55 | 27.00033 | -79.68339 | 29097 ft | 474 kts | 109° |
| 2026-05-06 05:56 | 26.97694 | -79.61454 | 29098 ft | 474 kts | 110° |
| 2026-05-06 05:56 | 26.95388 | -79.54523 | 29090 ft | 474 kts | 109° |
| 2026-05-06 05:57 | 26.93055 | -79.47616 | 29086 ft | 474 kts | 109° |
| 2026-05-06 05:57 | 26.90726 | -79.40681 | 29087 ft | 474 kts | 110° |
| 2026-05-06 05:58 | 26.88409 | -79.33824 | 29084 ft | 473 kts | 110° |
| 2026-05-06 05:58 | 26.86076 | -79.26914 | 29087 ft | 473 kts | 110° |
| 2026-05-06 05:59 | 26.83205 | -79.20296 | 29091 ft | 473 kts | 126° |
| 2026-05-06 05:59 | 26.78719 | -79.15055 | 29091 ft | 467 kts | 147° |
| 2026-05-06 06:00 | 26.73048 | -79.11740 | 29075 ft | 454 kts | 167° |
| 2026-05-06 06:00 | 26.70003 | -79.10938 | 29082 ft | 446 kts | 178° |
| 2026-05-06 06:00 | 26.66934 | -79.10727 | 29090 ft | 437 kts | 188° |
| 2026-05-06 06:01 | 26.63939 | -79.11104 | 29088 ft | 428 kts | 199° |
| 2026-05-06 06:01 | 26.61122 | -79.12039 | 29086 ft | 419 kts | 209° |
| 2026-05-06 06:01 | 26.58556 | -79.13493 | 29087 ft | 409 kts | 220° |
| 2026-05-06 06:01 | 26.56276 | -79.15352 | 29081 ft | 401 kts | 229° |
| 2026-05-06 06:02 | 26.52852 | -79.20077 | 29083 ft | 384 kts | 248° |
| 2026-05-06 06:02 | 26.51315 | -79.25599 | 29079 ft | 370 kts | 267° |
| 2026-05-06 06:03 | 26.51207 | -79.28430 | 28438 ft | 363 kts | 276° |
| 2026-05-06 06:03 | 26.51609 | -79.31187 | 27698 ft | 357 kts | 287° |
| 2026-05-06 06:03 | 26.52327 | -79.33823 | 26959 ft | 352 kts | 289° |
| 2026-05-06 06:03 | 26.53037 | -79.36429 | 26208 ft | 351 kts | 286° |
| 2026-05-06 06:04 | 26.53569 | -79.39097 | 25514 ft | 351 kts | 282° |
| 2026-05-06 06:04 | 26.54001 | -79.41751 | 25029 ft | 337 kts | 283° |
| 2026-05-06 06:04 | 26.54432 | -79.44071 | 24260 ft | 281 kts | 285° |
| 2026-05-06 06:04 | 26.54884 | -79.46195 | 22901 ft | 279 kts | 285° |
| 2026-05-06 06:05 | 26.55315 | -79.48296 | 21542 ft | 275 kts | 284° |
| 2026-05-06 06:05 | 26.55712 | -79.50372 | 20226 ft | 269 kts | 283° |
| 2026-05-06 06:05 | 26.56096 | -79.52376 | 18857 ft | 265 kts | 283° |
| 2026-05-06 06:05 | 26.56496 | -79.54406 | 17745 ft | 271 kts | 283° |
| 2026-05-06 06:06 | 26.56896 | -79.56451 | 16726 ft | 268 kts | 283° |
| 2026-05-06 06:06 | 26.57290 | -79.58475 | 15739 ft | 265 kts | 282° |
| 2026-05-06 06:06 | 26.57685 | -79.60503 | 15075 ft | 266 kts | 282° |
| 2026-05-06 06:06 | 26.58062 | -79.62442 | 15041 ft | 244 kts | 282° |
| 2026-05-06 06:07 | 26.58403 | -79.64194 | 14705 ft | 228 kts | 282° |
| 2026-05-06 06:07 | 26.58740 | -79.65925 | 14324 ft | 227 kts | 282° |
| 2026-05-06 06:07 | 26.59393 | -79.67517 | 13928 ft | 228 kts | 301° |
| 2026-05-06 06:07 | 26.60257 | -79.69004 | 13487 ft | 228 kts | 299° |
| 2026-05-06 06:08 | 26.61098 | -79.70567 | 12822 ft | 246 kts | 298° |
| 2026-05-06 06:08 | 26.62005 | -79.72283 | 12043 ft | 262 kts | 299° |
| 2026-05-06 06:08 | 26.62947 | -79.74028 | 11450 ft | 262 kts | 300° |
| 2026-05-06 06:08 | 26.63889 | -79.75772 | 10880 ft | 261 kts | 300° |
| 2026-05-06 06:09 | 26.64808 | -79.77482 | 10350 ft | 259 kts | 300° |
| 2026-05-06 06:09 | 26.65736 | -79.79210 | 10011 ft | 256 kts | 299° |
| 2026-05-06 06:09 | 26.66657 | -79.80924 | 10014 ft | 258 kts | 299° |
| 2026-05-06 06:09 | 26.67587 | -79.82655 | 10015 ft | 260 kts | 300° |
| 2026-05-06 06:10 | 26.68521 | -79.84396 | 10017 ft | 260 kts | 300° |
| 2026-05-06 06:10 | 26.69440 | -79.86108 | 10018 ft | 259 kts | 300° |
| 2026-05-06 06:10 | 26.70369 | -79.87839 | 10017 ft | 259 kts | 299° |
| 2026-05-06 06:10 | 26.71294 | -79.89565 | 10020 ft | 258 kts | 299° |
| 2026-05-06 06:11 | 26.72223 | -79.91299 | 10008 ft | 259 kts | 300° |
| 2026-05-06 06:11 | 26.73152 | -79.93029 | 10003 ft | 258 kts | 300° |
| 2026-05-06 06:11 | 26.74065 | -79.94735 | 10004 ft | 258 kts | 299° |
| 2026-05-06 06:11 | 26.74989 | -79.96460 | 10004 ft | 258 kts | 299° |
| 2026-05-06 06:12 | 26.75913 | -79.98187 | 10018 ft | 259 kts | 300° |
| 2026-05-06 06:12 | 26.76845 | -79.99931 | 10019 ft | 261 kts | 300° |
| 2026-05-06 06:12 | 26.77774 | -80.01667 | 10015 ft | 259 kts | 299° |
| 2026-05-06 06:12 | 26.78700 | -80.03398 | 10007 ft | 259 kts | 299° |
| 2026-05-06 06:13 | 26.79616 | -80.05114 | 10006 ft | 260 kts | 300° |
| 2026-05-06 06:13 | 26.80549 | -80.06860 | 10009 ft | 261 kts | 300° |
| 2026-05-06 06:13 | 26.81480 | -80.08604 | 10009 ft | 260 kts | 300° |
| 2026-05-06 06:13 | 26.82407 | -80.10340 | 10010 ft | 259 kts | 299° |
| 2026-05-06 06:14 | 26.83333 | -80.12075 | 10014 ft | 259 kts | 300° |
| 2026-05-06 06:14 | 26.84261 | -80.13816 | 10016 ft | 261 kts | 299° |
| 2026-05-06 06:14 | 26.85186 | -80.15549 | 10016 ft | 258 kts | 299° |
| 2026-05-06 06:14 | 26.86091 | -80.17248 | 10006 ft | 258 kts | 300° |
| 2026-05-06 06:15 | 26.87047 | -80.19046 | 10007 ft | 277 kts | 299° |
| 2026-05-06 06:15 | 26.88045 | -80.20919 | 10010 ft | 282 kts | 300° |
| 2026-05-06 06:15 | 26.89051 | -80.22807 | 10012 ft | 282 kts | 300° |
| 2026-05-06 06:15 | 26.90051 | -80.24685 | 10013 ft | 279 kts | 300° |
| 2026-05-06 06:16 | 26.91052 | -80.26567 | 10012 ft | 282 kts | 300° |
| 2026-05-06 06:16 | 26.92052 | -80.28451 | 10010 ft | 282 kts | 300° |
| 2026-05-06 06:16 | 26.93045 | -80.30320 | 10010 ft | 283 kts | 300° |
| 2026-05-06 06:16 | 26.94052 | -80.32215 | 10007 ft | 280 kts | 300° |
| 2026-05-06 06:17 | 26.95047 | -80.34090 | 10006 ft | 279 kts | 300° |
| 2026-05-06 06:17 | 26.96046 | -80.35973 | 10003 ft | 282 kts | 300° |
| 2026-05-06 06:17 | 26.97125 | -80.37801 | 10003 ft | 282 kts | 311° |
| 2026-05-06 06:17 | 26.98709 | -80.39074 | 9951 ft | 278 kts | 330° |
| 2026-05-06 06:18 | 27.00406 | -80.40004 | 9653 ft | 263 kts | 332° |
| 2026-05-06 06:18 | 27.01877 | -80.40860 | 9367 ft | 216 kts | 327° |
| 2026-05-06 06:18 | 27.03090 | -80.41649 | 9334 ft | 198 kts | 326° |
| 2026-05-06 06:18 | 27.04277 | -80.42414 | 9276 ft | 195 kts | 327° |
| 2026-05-06 06:19 | 27.05463 | -80.43159 | 9202 ft | 196 kts | 327° |
| 2026-05-06 06:19 | 27.06644 | -80.43901 | 9141 ft | 198 kts | 328° |
| 2026-05-06 06:19 | 27.07853 | -80.44661 | 8911 ft | 201 kts | 327° |
| 2026-05-06 06:19 | 27.09095 | -80.45443 | 8546 ft | 204 kts | 328° |
| 2026-05-06 06:20 | 27.10342 | -80.46228 | 8239 ft | 204 kts | 329° |
| 2026-05-06 06:20 | 27.11571 | -80.47000 | 8090 ft | 200 kts | 329° |
| 2026-05-06 06:20 | 27.12778 | -80.47760 | 7971 ft | 197 kts | 329° |
| 2026-05-06 06:20 | 27.13975 | -80.48515 | 7743 ft | 199 kts | 329° |
| 2026-05-06 06:21 | 27.15162 | -80.49262 | 7503 ft | 198 kts | 329° |
| 2026-05-06 06:21 | 27.16360 | -80.50017 | 7333 ft | 196 kts | 329° |
| 2026-05-06 06:21 | 27.17561 | -80.50774 | 7108 ft | 199 kts | 329° |
| 2026-05-06 06:21 | 27.18767 | -80.51534 | 6873 ft | 198 kts | 329° |
| 2026-05-06 06:22 | 27.19974 | -80.52295 | 6648 ft | 198 kts | 330° |
| 2026-05-06 06:22 | 27.21179 | -80.53055 | 6384 ft | 199 kts | 330° |
| 2026-05-06 06:22 | 27.22455 | -80.53643 | 6107 ft | 199 kts | 350° |
| 2026-05-06 06:22 | 27.23835 | -80.53637 | 5845 ft | 199 kts | 12° |
| 2026-05-06 06:23 | 27.25095 | -80.53070 | 5583 ft | 198 kts | 33° |
| 2026-05-06 06:23 | 27.26091 | -80.52011 | 5321 ft | 197 kts | 55° |
| 2026-05-06 06:23 | 27.26666 | -80.50620 | 5060 ft | 196 kts | 77° |
| 2026-05-06 06:23 | 27.26745 | -80.49095 | 4796 ft | 196 kts | 98° |
| 2026-05-06 06:24 | 27.26355 | -80.47647 | 4534 ft | 196 kts | 111° |
| 2026-05-06 06:24 | 27.25858 | -80.46222 | 4269 ft | 194 kts | 110° |
| 2026-05-06 06:24 | 27.25388 | -80.44831 | 4033 ft | 186 kts | 110° |
| 2026-05-06 06:24 | 27.24922 | -80.43458 | 3782 ft | 189 kts | 110° |
| 2026-05-06 06:25 | 27.24458 | -80.42104 | 3533 ft | 185 kts | 110° |
| 2026-05-06 06:25 | 27.24011 | -80.40769 | 3288 ft | 179 kts | 108° |
| 2026-05-06 06:25 | 27.23156 | -80.38157 | 2818 ft | 176 kts | 108° |
| 2026-05-06 06:26 | 27.22734 | -80.36876 | 2580 ft | 173 kts | 106° |
| 2026-05-06 06:26 | 27.22320 | -80.35619 | 2357 ft | 170 kts | 108° |
| 2026-05-06 06:26 | 27.21912 | -80.34374 | 2129 ft | 170 kts | 108° |
| 2026-05-06 06:26 | 27.21501 | -80.33127 | 1903 ft | 170 kts | 108° |
| 2026-05-06 06:27 | 27.21092 | -80.31890 | 1680 ft | 167 kts | 108° |
| 2026-05-06 06:27 | 27.20700 | -80.30704 | 1612 ft | 154 kts | 107° |
| 2026-05-06 06:27 | 27.20347 | -80.29634 | 1612 ft | 141 kts | 108° |
| 2026-05-06 06:27 | 27.20016 | -80.28667 | 1577 ft | 123 kts | 108° |
| 2026-05-06 06:28 | 27.19735 | -80.27807 | 1354 ft | 114 kts | 106° |
| 2026-05-06 06:28 | 27.19474 | -80.26983 | 1008 ft | 109 kts | 106° |
| 2026-05-06 06:28 | 27.19227 | -80.26210 | 746 ft | 102 kts | 109° |
| 2026-05-06 06:28 | 27.18986 | -80.25495 | 501 ft | 93 kts | 105° |
| 2026-05-06 06:29 | 27.18764 | -80.24846 | 316 ft | 83 kts | 107° |
| 2026-05-06 06:29 | 27.18553 | -80.24191 | 221 ft | 90 kts | 108° |
| 2026-05-06 06:29 | 27.18346 | -80.23550 | 135 ft | 86 kts | 109° |
| 2026-05-06 06:29 | 27.18137 | -80.22922 | 35 ft | 83 kts | 108° |
| 2026-05-06 06:30 | 27.17951 | -80.22368 | 23 ft | 63 kts | 110° |
| 2026-05-06 06:30 | 27.17860 | -80.22087 | 24 ft | 31 kts | 110° |
| 2026-05-06 06:30 | 27.17813 | -80.21940 | 25 ft | 29 kts | 110° |
| 2026-05-06 06:30 | 27.17736 | -80.21739 | 25 ft | 11 kts | 143° |
| 2026-05-06 06:31 | 27.17690 | -80.21712 | 24 ft | 12 kts | 154° |
| 2026-05-06 06:31 | 27.17614 | -80.21686 | 25 ft | 11 kts | 216° |
| 2026-05-06 06:31 | 27.17621 | -80.21762 | 24 ft | 11 kts | 290° |
| 2026-05-06 06:31 | 27.17634 | -80.21842 | 23 ft | 11 kts | 232° |
| 2026-05-06 06:32 | 27.17590 | -80.21892 | 23 ft | 6 kts | 314° |
| 2026-05-06 06:32 | 27.17617 | -80.21895 | 23 ft | 0 kts | 5° |